Hovedside
METAR-TAF:

METAR-TAF

Lufthavner :

Fort-de-France, Martinique

breddegrad: 14-36N, lengdegrad: 061-00W, høyde over havet: 5 m

Gjeldene værobservasjon

Denne rapporten ble laget for 39 minutter siden, klokken 13:30 UTC
Vind 14 kt fra Øst, skiftende mellom Nordøst og Øst-sørøst
Temperatur 28°C
Luftfuktighet 66%
Trykk 1016 hPa
Sikt 10 km eller mer

METAR: TFFF 211330Z AUTO 08014KT 050V110 9999 FEW029/// BKN042/// 28/21 Q1016 NOSIG

Tid: 10:09 (14:09 UTC)

Varsel

Denne rapporten ble laget for 3 timer og 9 minutter siden, klokken 11:00 UTC
Varsel gyldig fra 21. klokken 12 UTC til 22. klokken 12 UTC
Vind 13 kt fra Øst
Sikt 10 km eller mer
Få skyer i en høyde av 3000 ft
Spredte skyer i en høyde av 5000 ft
Sannsynlighet 30% :
Midlertidig
fra 22. klokken 06 UTC til 22. klokken 12 UTC
Sikt: 4000 m
Spredte skyer i en høyde av 1800 ft, Tårnskyer (cumulus).
regnbyger

TAF: TFFF 211100Z 2112/2212 09013KT 9999 FEW030 SCT050 PROB30 TEMPO 2206/2212 4000 SHRA SCT018TCU

Værobservasjoner og værvarsel for over 4000 flyplasser (METAR- og TAF-rapporter).

Tilgjengelige stasjoner er representert av de røde og gule prikkene på kartet.

Hold musepekeren over prikken for å se navnet på stasjonen.

Klikk så for å se værobservasjoner og -varsler.

For å forandre kartet kan du klikke på den grønne knappen med svart kryss for å zoome inn, på den grønne knappen med strek for å zoome ut, eller på de grønne pilene for å se tilstøtende kart.


METAR-TAF: